createdAt,value
2022-09-07T00:01:02.788Z,81.30
2022-09-07T00:03:29.926Z,81.40
2022-09-07T00:05:56.809Z,81.80
2022-09-07T00:08:26.813Z,81.90
2022-09-07T00:10:59.014Z,82.10
2022-09-07T00:13:28.054Z,82.30
2022-09-07T00:15:55.161Z,82.40
2022-09-07T00:18:22.143Z,82.40
2022-09-07T00:21:01.959Z,82.30
2022-09-07T00:23:30.362Z,82.20
2022-09-07T00:26:01.700Z,82.40
2022-09-07T00:28:29.407Z,82.40
2022-09-07T00:30:56.234Z,82.30
2022-09-07T00:33:23.219Z,82.30
2022-09-07T00:35:50.701Z,82.40
2022-09-07T00:38:17.721Z,82.50
2022-09-07T00:40:44.417Z,82.50
2022-09-07T00:43:18.145Z,82.50
2022-09-07T00:45:44.799Z,82.40
2022-09-07T00:48:16.882Z,82.40
2022-09-07T00:50:55.487Z,82.30
2022-09-07T00:53:30.420Z,82.30
2022-09-07T00:55:59.622Z,82.40
2022-09-07T00:58:27.097Z,82.40
2022-09-07T01:00:55.171Z,82.30
2022-09-07T01:03:30.889Z,82.40
2022-09-07T01:06:00.687Z,82.50
2022-09-07T01:08:28.676Z,82.40
2022-09-07T01:10:57.674Z,82.30
2022-09-07T01:13:24.467Z,82.50
2022-09-07T01:16:16.449Z,82.50
2022-09-07T01:19:01.636Z,82.40
2022-09-07T01:22:05.977Z,82.60
2022-09-07T01:24:32.596Z,82.50
2022-09-07T01:27:43.953Z,82.10
2022-09-07T01:30:18.741Z,82.00
2022-09-07T01:33:21.296Z,82.10
2022-09-07T01:36:01.689Z,82.10
2022-09-07T01:38:40.960Z,82.00
2022-09-07T01:41:11.397Z,82.00
2022-09-07T01:43:59.597Z,82.00
2022-09-07T01:46:43.618Z,82.10
2022-09-07T01:49:17.591Z,81.70
2022-09-07T01:51:48.403Z,81.60
2022-09-07T01:54:44.590Z,81.50
2022-09-07T01:57:19.036Z,81.30
2022-09-07T01:59:53.078Z,81.80
2022-09-07T02:02:30.956Z,82.30
2022-09-07T02:05:12.216Z,82.70
2022-09-07T02:08:07.970Z,83.10
2022-09-07T02:10:45.183Z,82.90
2022-09-07T02:13:21.715Z,83.20
2022-09-07T02:15:54.755Z,83.30
2022-09-07T02:18:22.809Z,83.40
2022-09-07T02:20:53.415Z,83.40
2022-09-07T02:23:28.094Z,83.50
2022-09-07T02:26:02.471Z,83.60
2022-09-07T02:28:35.403Z,83.70
2022-09-07T02:31:02.944Z,83.90
2022-09-07T02:33:30.054Z,83.80
2022-09-07T02:35:57.676Z,84.00
2022-09-07T02:38:24.966Z,84.10
2022-09-07T02:40:56.833Z,83.90
2022-09-07T02:43:25.344Z,83.70
2022-09-07T02:46:28.422Z,83.50
2022-09-07T02:49:01.340Z,83.20
2022-09-07T02:51:47.409Z,83.10
2022-09-07T02:54:24.247Z,83.00
2022-09-07T02:57:08.638Z,83.40
2022-09-07T03:00:00.026Z,83.60
2022-09-07T03:02:36.453Z,83.70
2022-09-07T03:05:13.177Z,83.50
2022-09-07T03:07:47.618Z,83.80
2022-09-07T03:10:15.789Z,83.70
2022-09-07T03:12:45.574Z,83.20
2022-09-07T03:15:24.956Z,83.20
2022-09-07T03:17:51.802Z,83.30
2022-09-07T03:20:19.144Z,83.50
2022-09-07T03:22:47.222Z,83.50
2022-09-07T03:25:14.425Z,83.70
2022-09-07T03:27:41.410Z,83.50
2022-09-07T03:30:09.997Z,83.60
2022-09-07T03:32:38.442Z,83.50
2022-09-07T03:35:06.880Z,83.30
2022-09-07T03:37:36.491Z,83.20
2022-09-07T03:40:05.463Z,83.10
2022-09-07T03:42:32.126Z,83.00
2022-09-07T03:44:58.876Z,82.90
2022-09-07T03:47:25.529Z,82.90
2022-09-07T03:49:52.319Z,82.90
2022-09-07T03:52:19.024Z,82.80
2022-09-07T03:54:46.270Z,82.70
2022-09-07T03:57:13.231Z,82.80
2022-09-07T03:59:39.860Z,82.90
2022-09-07T04:02:06.688Z,83.00
2022-09-07T04:04:33.716Z,83.20
2022-09-07T04:07:00.349Z,83.40
2022-09-07T04:09:26.996Z,83.60
2022-09-07T04:11:53.658Z,83.60
2022-09-07T04:14:20.508Z,83.20
2022-09-07T04:16:47.760Z,83.00
2022-09-07T04:19:14.781Z,82.90
2022-09-07T04:21:43.141Z,82.90
2022-09-07T04:24:09.886Z,83.70
2022-09-07T04:26:37.152Z,82.80
2022-09-07T04:29:04.492Z,82.80
2022-09-07T04:31:34.143Z,83.80
2022-09-07T04:34:01.202Z,82.80
2022-09-07T04:36:28.578Z,82.80
2022-09-07T04:38:57.403Z,82.90
2022-09-07T04:41:24.350Z,83.10
2022-09-07T04:43:54.819Z,82.90
2022-09-07T04:46:22.960Z,83.00
2022-09-07T04:48:51.725Z,83.00
2022-09-07T04:51:19.310Z,83.10
2022-09-07T04:53:51.525Z,83.10
2022-09-07T04:56:19.864Z,83.10
2022-09-07T04:58:47.397Z,83.20
2022-09-07T05:01:17.962Z,83.20
2022-09-07T05:03:45.144Z,83.20
2022-09-07T05:06:14.063Z,83.20
2022-09-07T05:08:46.678Z,83.10
2022-09-07T05:11:14.855Z,83.00
2022-09-07T05:13:41.927Z,83.10
2022-09-07T05:16:20.355Z,83.10
2022-09-07T05:18:51.831Z,83.00
2022-09-07T05:21:24.399Z,83.00
2022-09-07T05:23:53.699Z,82.80
2022-09-07T05:26:22.500Z,82.70
2022-09-07T05:28:50.411Z,82.90
2022-09-07T05:31:20.002Z,82.90
2022-09-07T05:36:42.060Z,82.90
2022-09-07T05:39:09.439Z,82.70
2022-09-07T05:41:36.454Z,82.70
2022-09-07T05:46:52.240Z,82.80
2022-09-07T05:49:18.907Z,82.80
2022-09-07T05:51:45.549Z,82.90
2022-09-07T05:54:12.227Z,82.90
2022-09-07T05:56:39.001Z,82.90
2022-09-07T05:59:05.692Z,82.90
2022-09-07T06:01:32.701Z,82.90
2022-09-07T06:04:00.190Z,82.90
2022-09-07T06:06:27.071Z,83.00
2022-09-07T06:08:54.378Z,83.20
2022-09-07T06:11:23.369Z,83.00
2022-09-07T06:13:50.569Z,83.20
2022-09-07T06:16:18.557Z,83.30
2022-09-07T06:18:46.953Z,83.30
2022-09-07T06:21:14.826Z,83.30
2022-09-07T06:23:43.492Z,83.10
2022-09-07T06:26:11.328Z,83.20
2022-09-07T06:28:40.692Z,83.30
2022-09-07T06:31:13.233Z,83.20
2022-09-07T06:33:41.502Z,83.30
2022-09-07T06:36:12.611Z,83.30
2022-09-07T06:38:39.915Z,83.40
2022-09-07T06:43:57.694Z,83.20
2022-09-07T06:49:11.324Z,83.20
2022-09-07T06:51:38.789Z,83.10
2022-09-07T06:56:52.480Z,83.40
2022-09-07T06:59:19.255Z,83.40
2022-09-07T07:01:45.885Z,83.20
2022-09-07T07:04:13.203Z,83.20
2022-09-07T07:06:40.315Z,83.30
2022-09-07T07:09:08.621Z,83.50
2022-09-07T07:11:37.104Z,83.70
2022-09-07T07:14:03.869Z,83.60
2022-09-07T07:16:30.762Z,83.60
2022-09-07T07:18:57.691Z,83.50
2022-09-07T07:21:24.518Z,83.40
2022-09-07T07:23:53.013Z,83.30
2022-09-07T07:26:23.644Z,83.30
2022-09-07T07:29:07.076Z,83.20
2022-09-07T07:31:34.945Z,83.30
2022-09-07T07:34:20.967Z,83.40
2022-09-07T07:37:06.172Z,83.40
2022-09-07T07:42:21.026Z,84.10
2022-09-07T07:44:48.004Z,82.90
2022-09-07T07:47:14.605Z,82.80
2022-09-07T07:49:41.197Z,82.80
2022-09-07T07:54:54.348Z,82.50
2022-09-07T07:57:21.009Z,82.30
2022-09-07T07:59:47.611Z,81.90
2022-09-07T08:02:16.311Z,81.70
2022-09-07T08:04:43.391Z,81.80
2022-09-07T08:07:11.898Z,82.10
2022-09-07T08:09:44.114Z,82.20
2022-09-07T08:12:16.033Z,82.20
2022-09-07T08:14:42.918Z,82.00
2022-09-07T08:17:11.767Z,82.10
2022-09-07T08:19:39.083Z,81.90
2022-09-07T08:22:06.573Z,81.90
2022-09-07T08:24:33.406Z,81.60
2022-09-07T08:27:00.168Z,81.50
2022-09-07T08:29:27.179Z,81.30
2022-09-07T08:31:54.141Z,81.20
2022-09-07T08:34:21.813Z,81.20
2022-09-07T08:36:48.639Z,80.90
2022-09-07T08:39:15.309Z,80.50
2022-09-07T08:41:48.751Z,80.30
2022-09-07T08:44:18.320Z,80.50
2022-09-07T08:46:56.690Z,80.20
2022-09-07T08:49:47.210Z,80.90
2022-09-07T08:52:15.602Z,79.70
2022-09-07T08:54:45.390Z,79.20
2022-09-07T08:57:20.830Z,78.60
2022-09-07T09:00:08.653Z,78.60
2022-09-07T09:02:42.481Z,77.90
2022-09-07T09:05:40.012Z,77.30
2022-09-07T09:08:29.012Z,76.80
2022-09-07T09:11:03.639Z,76.50
2022-09-07T09:13:52.204Z,76.00
2022-09-07T09:16:45.724Z,75.80
2022-09-07T09:19:49.542Z,75.20
2022-09-07T09:22:22.698Z,74.60
2022-09-07T09:25:20.190Z,73.70
2022-09-07T09:27:48.331Z,73.50
2022-09-07T09:30:21.265Z,73.70
2022-09-07T09:32:50.599Z,73.80
2022-09-07T09:35:32.484Z,73.50
2022-09-07T09:37:59.117Z,73.20
2022-09-07T09:40:36.157Z,73.00
2022-09-07T09:43:07.146Z,72.60
2022-09-07T09:48:31.445Z,72.20
2022-09-07T09:54:06.037Z,72.00
2022-09-07T09:56:41.226Z,71.60
2022-09-07T10:05:26.216Z,71.30
2022-09-07T10:07:53.666Z,70.80
2022-09-07T10:10:20.856Z,70.60
2022-09-07T10:12:47.539Z,70.30
2022-09-07T10:15:33.640Z,70.00
2022-09-07T10:18:09.528Z,69.70
2022-09-07T10:20:38.354Z,69.50
2022-09-07T10:23:18.011Z,69.00
2022-09-07T10:25:44.690Z,69.40
2022-09-07T10:28:14.335Z,68.50
2022-09-07T10:31:18.408Z,67.70
2022-09-07T10:36:53.067Z,66.80
2022-09-07T10:39:26.127Z,66.70
2022-09-07T10:42:09.855Z,66.00
2022-09-07T10:44:42.928Z,65.30
2022-09-07T10:47:27.469Z,65.40
2022-09-07T10:53:40.308Z,64.60
2022-09-07T10:56:37.954Z,64.30
2022-09-07T10:59:21.751Z,64.10
2022-09-07T11:02:00.307Z,63.20
2022-09-07T11:04:33.647Z,62.90
2022-09-07T11:07:15.611Z,62.70
2022-09-07T11:10:25.281Z,62.20
2022-09-07T11:12:56.160Z,61.60
2022-09-07T11:15:29.281Z,60.60
2022-09-07T11:18:03.239Z,60.00
2022-09-07T11:20:35.535Z,59.20
2022-09-07T11:23:25.579Z,59.10
2022-09-07T11:26:21.560Z,59.10
2022-09-07T11:32:11.954Z,59.00
2022-09-07T11:34:46.703Z,59.90
2022-09-07T11:37:38.135Z,59.80
2022-09-07T11:40:17.715Z,60.50
2022-09-07T11:43:02.908Z,61.20
2022-09-07T11:45:56.533Z,61.40
2022-09-07T11:48:46.950Z,61.70
2022-09-07T11:51:20.531Z,62.00
2022-09-07T11:53:53.350Z,61.90
2022-09-07T11:56:37.659Z,61.60
2022-09-07T11:59:23.758Z,61.50
2022-09-07T12:02:36.725Z,61.00
2022-09-07T12:05:28.155Z,59.20
2022-09-07T12:08:14.506Z,58.80
2022-09-07T12:11:08.492Z,57.90
2022-09-07T12:13:59.976Z,57.80
2022-09-07T12:16:29.702Z,57.90
2022-09-07T12:19:21.360Z,57.50
2022-09-07T12:21:54.615Z,56.20
2022-09-07T12:24:36.969Z,55.80
2022-09-07T12:27:10.191Z,55.50
2022-09-07T12:29:37.319Z,54.70
2022-09-07T12:32:53.431Z,54.60
2022-09-07T12:34:54.679Z,54.20
2022-09-07T12:37:27.027Z,54.30
2022-09-07T12:40:28.135Z,53.70
2022-09-07T12:43:12.995Z,53.40
2022-09-07T12:45:39.580Z,53.70
2022-09-07T12:48:06.163Z,53.40
2022-09-07T12:50:42.835Z,53.90
2022-09-07T12:53:58.023Z,54.20
2022-09-07T12:57:28.957Z,53.80
2022-09-07T13:00:14.023Z,52.50
2022-09-07T13:03:03.867Z,52.30
2022-09-07T13:05:54.027Z,53.00
2022-09-07T13:08:57.430Z,53.60
2022-09-07T13:11:42.464Z,53.50
2022-09-07T13:14:16.026Z,53.50
2022-09-07T13:20:06.898Z,53.20
2022-09-07T13:22:33.451Z,52.30
2022-09-07T13:25:20.640Z,52.00
2022-09-07T13:28:26.964Z,51.80
2022-09-07T13:31:07.248Z,51.70
2022-09-07T13:33:44.676Z,51.40
2022-09-07T13:36:37.545Z,51.20
2022-09-07T13:39:09.511Z,51.30
2022-09-07T13:41:42.161Z,51.00
2022-09-07T13:44:26.170Z,51.10
2022-09-07T13:47:12.392Z,51.30
2022-09-07T13:50:06.063Z,51.30
2022-09-07T13:52:51.249Z,51.00
2022-09-07T13:55:25.950Z,51.70
2022-09-07T13:58:22.091Z,51.70
2022-09-07T14:00:55.996Z,51.00
2022-09-07T14:03:25.311Z,50.80
2022-09-07T14:06:26.081Z,50.50
2022-09-07T14:08:56.452Z,49.70
2022-09-07T14:11:41.694Z,49.80
2022-09-07T14:14:16.195Z,50.10
2022-09-07T14:16:49.180Z,50.40
2022-09-07T14:19:24.090Z,50.50
2022-09-07T14:22:02.912Z,50.30
2022-09-07T14:24:33.359Z,50.10
2022-09-07T14:27:00.704Z,49.30
2022-09-07T14:29:31.061Z,48.80
2022-09-07T14:31:59.927Z,48.20
2022-09-07T14:34:32.518Z,48.70
2022-09-07T14:37:03.615Z,49.10
2022-09-07T14:39:34.026Z,49.10
2022-09-07T14:42:03.235Z,49.50
2022-09-07T14:44:42.838Z,49.30
2022-09-07T14:47:18.922Z,48.90
2022-09-07T14:49:52.472Z,49.10
2022-09-07T14:52:24.730Z,48.90
2022-09-07T14:54:52.725Z,48.30
2022-09-07T14:57:19.294Z,49.70
2022-09-07T14:59:48.019Z,48.10
2022-09-07T15:02:29.779Z,48.70
2022-09-07T15:05:14.963Z,48.60
2022-09-07T15:07:49.715Z,48.70
2022-09-07T15:10:28.131Z,48.60
2022-09-07T15:12:57.000Z,49.30
2022-09-07T15:15:31.779Z,49.40
2022-09-07T15:18:08.822Z,49.20
2022-09-07T15:20:43.950Z,49.00
2022-09-07T15:23:19.347Z,49.60
2022-09-07T15:25:51.885Z,49.20
2022-09-07T15:34:13.094Z,48.70
2022-09-07T15:36:42.636Z,49.20
2022-09-07T15:39:25.015Z,49.60
2022-09-07T15:41:52.163Z,49.10
2022-09-07T15:44:24.376Z,48.80
2022-09-07T15:49:45.780Z,49.10
2022-09-07T15:52:16.223Z,49.20
2022-09-07T15:54:43.484Z,49.20
2022-09-07T15:59:57.144Z,49.10
2022-09-07T16:05:10.821Z,49.70
2022-09-07T16:10:25.510Z,49.80
2022-09-07T16:15:45.266Z,49.90
2022-09-07T16:18:16.417Z,50.70
2022-09-07T16:20:43.874Z,51.10
2022-09-07T16:23:14.323Z,51.10
2022-09-07T16:25:43.076Z,51.10
2022-09-07T16:28:09.950Z,50.90
2022-09-07T16:30:40.340Z,51.20
2022-09-07T16:33:07.142Z,51.20
2022-09-07T16:35:33.851Z,51.40
2022-09-07T16:40:47.151Z,51.10
2022-09-07T16:43:13.773Z,51.40
2022-09-07T16:48:26.965Z,51.30
2022-09-07T16:51:00.326Z,51.80
2022-09-07T16:53:29.748Z,52.00
2022-09-07T16:56:08.245Z,52.20
2022-09-07T16:58:38.367Z,52.10
2022-09-07T17:01:11.311Z,52.30
2022-09-07T17:03:38.858Z,52.50
2022-09-07T17:06:08.121Z,52.60
2022-09-07T17:08:35.927Z,52.80
2022-09-07T17:11:08.369Z,52.90
2022-09-07T17:13:35.846Z,53.20
2022-09-07T17:16:03.997Z,53.20
2022-09-07T17:21:19.849Z,53.70
2022-09-07T17:23:54.275Z,54.00
2022-09-07T17:26:22.419Z,54.30
2022-09-07T17:28:50.411Z,54.30
2022-09-07T17:34:13.687Z,55.10
2022-09-07T17:36:40.523Z,55.40
2022-09-07T17:39:16.749Z,55.50
2022-09-07T17:41:45.547Z,55.70
2022-09-07T17:44:12.290Z,56.10
2022-09-07T17:46:39.295Z,56.10
2022-09-07T17:49:07.923Z,57.90
2022-09-07T17:51:35.865Z,57.10
2022-09-07T17:54:09.460Z,57.20
2022-09-07T17:56:36.982Z,57.30
2022-09-07T18:01:50.703Z,58.20
2022-09-07T18:04:17.590Z,58.60
2022-09-07T18:06:44.306Z,59.30
2022-09-07T18:09:11.754Z,59.80
2022-09-07T18:11:47.325Z,61.20
2022-09-07T18:14:15.452Z,60.80
2022-09-07T18:16:43.817Z,61.20
2022-09-07T18:19:11.718Z,61.70
2022-09-07T18:21:40.930Z,61.90
2022-09-07T18:24:18.752Z,62.20
2022-09-07T18:26:50.946Z,62.40
2022-09-07T18:29:33.438Z,62.60
2022-09-07T18:32:04.439Z,62.70
2022-09-07T18:34:32.105Z,62.70
2022-09-07T18:36:59.586Z,62.80
2022-09-07T18:39:27.046Z,63.20
2022-09-07T18:41:54.480Z,63.30
2022-09-07T18:47:08.589Z,64.00
2022-09-07T18:49:35.561Z,64.50
2022-09-07T18:54:50.539Z,65.10
2022-09-07T18:57:17.247Z,65.20
2022-09-07T18:59:43.980Z,65.30
2022-09-07T19:02:10.719Z,65.50
2022-09-07T19:07:29.549Z,65.60
2022-09-07T19:10:09.692Z,65.70
2022-09-07T19:12:39.849Z,66.30
2022-09-07T19:15:26.071Z,66.40
2022-09-07T19:17:57.874Z,66.60
2022-09-07T19:20:27.146Z,66.70
2022-09-07T19:22:53.778Z,67.00
2022-09-07T19:25:27.574Z,67.30
2022-09-07T19:27:55.642Z,67.50
2022-09-07T19:30:23.620Z,67.70
2022-09-07T19:32:51.062Z,67.90
2022-09-07T19:35:18.438Z,67.80
2022-09-07T19:37:45.973Z,67.90
2022-09-07T19:40:18.598Z,67.80
2022-09-07T19:42:45.924Z,67.80
2022-09-07T19:45:12.578Z,68.20
2022-09-07T19:47:39.262Z,68.50
2022-09-07T19:50:06.286Z,68.70
2022-09-07T19:52:32.975Z,68.80
2022-09-07T19:55:03.301Z,68.90
2022-09-07T19:57:30.041Z,68.80
2022-09-07T19:59:57.306Z,69.40
2022-09-07T20:02:23.928Z,69.20
2022-09-07T20:04:50.598Z,69.40
2022-09-07T20:07:17.259Z,69.60
2022-09-07T20:09:43.890Z,69.90
2022-09-07T20:12:10.520Z,70.00
2022-09-07T20:14:37.299Z,70.20
2022-09-07T20:17:04.107Z,70.30
2022-09-07T20:19:30.774Z,70.40
2022-09-07T20:21:57.418Z,70.50
2022-09-07T20:24:24.692Z,71.20
2022-09-07T20:26:51.460Z,70.90
2022-09-07T20:29:33.536Z,71.00
2022-09-07T20:32:01.120Z,71.20
2022-09-07T20:34:28.621Z,71.50
2022-09-07T20:36:56.510Z,71.50
2022-09-07T20:39:23.965Z,71.60
2022-09-07T20:41:50.820Z,71.60
2022-09-07T20:44:17.472Z,71.70
2022-09-07T20:46:44.322Z,71.70
2022-09-07T20:49:11.183Z,71.70
2022-09-07T20:51:38.650Z,72.00
2022-09-07T20:54:05.684Z,72.00
2022-09-07T20:56:32.392Z,72.10
2022-09-07T20:59:00.530Z,71.90
2022-09-07T21:01:29.078Z,71.90
2022-09-07T21:03:57.876Z,72.10
2022-09-07T21:06:25.864Z,72.20
2022-09-07T21:08:53.306Z,72.10
2022-09-07T21:11:21.179Z,72.20
2022-09-07T21:13:53.846Z,72.10
2022-09-07T21:16:20.438Z,72.10
2022-09-07T21:18:47.086Z,72.00
2022-09-07T21:21:21.036Z,72.00
2022-09-07T21:23:48.148Z,71.90
2022-09-07T21:26:19.567Z,72.00
2022-09-07T21:28:46.174Z,72.90
2022-09-07T21:31:12.811Z,72.20
2022-09-07T21:33:39.464Z,72.30
2022-09-07T21:36:11.195Z,72.30
2022-09-07T21:38:39.554Z,72.40
2022-09-07T21:41:12.171Z,72.40
2022-09-07T21:43:39.094Z,72.50
2022-09-07T21:46:13.464Z,72.20
2022-09-07T21:48:40.510Z,72.50
2022-09-07T21:51:07.793Z,72.60
2022-09-07T21:53:35.047Z,72.70
2022-09-07T21:56:08.433Z,72.80
2022-09-07T21:58:35.767Z,72.80
2022-09-07T22:01:11.869Z,72.90
2022-09-07T22:03:40.249Z,73.10
2022-09-07T22:06:07.832Z,73.10
2022-09-07T22:08:36.159Z,73.10
2022-09-07T22:11:04.795Z,73.10
2022-09-07T22:13:31.566Z,74.10
2022-09-07T22:15:58.543Z,73.20
2022-09-07T22:18:25.204Z,73.20
2022-09-07T22:21:05.412Z,73.20
2022-09-07T22:23:33.614Z,73.20
2022-09-07T22:26:00.579Z,73.30
2022-09-07T22:28:29.826Z,73.30
2022-09-07T22:31:07.069Z,73.50
2022-09-07T22:33:33.780Z,73.50
2022-09-07T22:36:11.282Z,73.60
2022-09-07T22:38:38.613Z,73.80
2022-09-07T22:41:10.409Z,73.90
2022-09-07T22:43:37.391Z,74.00
2022-09-07T22:46:05.013Z,73.90
2022-09-07T22:48:32.099Z,73.90
2022-09-07T22:51:00.098Z,73.90
2022-09-07T22:53:27.903Z,73.70
2022-09-07T22:55:55.696Z,73.70
2022-09-07T22:58:28.867Z,73.60
2022-09-07T23:01:01.055Z,73.50
2022-09-07T23:03:28.985Z,73.60
2022-09-07T23:05:56.741Z,74.40
2022-09-07T23:08:24.900Z,73.60
2022-09-07T23:10:51.800Z,74.30
2022-09-07T23:13:19.076Z,73.40
2022-09-07T23:15:46.994Z,73.30
2022-09-07T23:18:18.946Z,73.20
2022-09-07T23:20:46.484Z,73.20
2022-09-07T23:23:13.376Z,73.20
2022-09-07T23:25:41.813Z,73.20
2022-09-07T23:28:12.178Z,73.20
2022-09-07T23:30:40.502Z,73.40
2022-09-07T23:33:07.391Z,73.50
2022-09-07T23:35:34.006Z,73.40
2022-09-07T23:38:00.616Z,73.20
2022-09-07T23:40:30.181Z,73.40
2022-09-07T23:42:56.842Z,73.60
2022-09-07T23:45:23.636Z,73.80
2022-09-07T23:47:50.351Z,73.60
2022-09-07T23:50:17.064Z,73.70
2022-09-07T23:52:43.768Z,73.70
2022-09-07T23:55:10.971Z,73.60
2022-09-07T23:57:38.890Z,73.60
